Time;durP1;ratioP1;P1;durP2;ratioP2;P2;SDS_P1;SDS_P2;PMS_P1;PMS_P2;Temp;Humidity;BMP_temperature;BMP_pressure;BME280_temperature;BME280_humidity;BME280_pressure;Samples;Min_cycle;Max_cycle;Signal;HPM_P1;HPM_P2
2023/04/20 00:02:23;;;;;;;;;;;18.30;65.70;;;;;;4971363;28;1894;-72
2023/04/20 00:04:49;;;;;;;;;;;18.20;65.70;;;;;;4971486;28;1218;-72
2023/04/20 00:07:15;;;;;;;;;;;18.20;65.70;;;;;;4971533;28;888;-72
2023/04/20 00:09:41;;;;;;;;;;;18.20;65.70;;;;;;4973698;28;1391;-72
2023/04/20 00:12:06;;;;;;;;;;;18.20;65.70;;;;;;4974116;28;1197;-72
2023/04/20 00:14:32;;;;;;;;;;;18.20;65.70;;;;;;4975218;28;797;-72
2023/04/20 00:16:57;;;;;;;;;;;18.20;65.70;;;;;;4975085;28;908;-72
2023/04/20 00:19:23;;;;;;;;;;;18.20;65.70;;;;;;4974855;28;1260;-72
2023/04/20 00:21:48;;;;;;;;;;;18.20;65.70;;;;;;4975202;28;1961;-72
2023/04/20 00:24:14;;;;;;;;;;;18.20;65.70;;;;;;4975220;28;861;-72
2023/04/20 00:26:40;;;;;;;;;;;18.20;65.70;;;;;;4975135;28;962;-72
2023/04/20 00:29:05;;;;;;;;;;;18.20;65.80;;;;;;4974534;28;1293;-72
2023/04/20 00:31:31;;;;;;;;;;;18.20;65.80;;;;;;4975109;28;918;-72
2023/04/20 00:33:56;;;;;;;;;;;18.20;65.80;;;;;;4976231;28;1083;-72
2023/04/20 00:36:22;;;;;;;;;;;18.20;65.80;;;;;;4976060;28;1065;-72
2023/04/20 00:38:47;;;;;;;;;;;18.20;65.80;;;;;;4974608;28;1273;-72
2023/04/20 00:41:13;;;;;;;;;;;18.20;65.80;;;;;;4974866;28;1965;-72
2023/04/20 00:43:48;;;;;;;;;;;18.20;66.60;;;;;;4972225;28;877;-72
2023/04/20 00:46:13;;;;;;;;;;;18.20;65.80;;;;;;4973471;28;932;-72
2023/04/20 00:48:39;;;;;;;;;;;18.20;65.80;;;;;;4974548;28;1296;-72
2023/04/20 00:51:04;;;;;;;;;;;18.20;65.80;;;;;;4974582;28;892;-72
2023/04/20 00:53:30;;;;;;;;;;;18.20;65.90;;;;;;4974799;28;853;-72
2023/04/20 00:55:55;;;;;;;;;;;18.20;65.80;;;;;;4973280;28;853;-72
2023/04/20 00:58:21;;;;;;;;;;;18.20;65.90;;;;;;4972922;28;1271;-72
2023/04/20 01:00:47;;;;;;;;;;;18.20;65.90;;;;;;4975196;28;1898;-72
2023/04/20 01:03:13;;;;;;;;;;;18.10;65.80;;;;;;4974574;28;874;-72
2023/04/20 01:05:39;;;;;;;;;;;18.20;65.90;;;;;;4974460;28;884;-72
2023/04/20 01:08:04;;;;;;;;;;;18.20;65.90;;;;;;4974046;28;879;-72
2023/04/20 01:10:30;;;;;;;;;;;18.20;65.90;;;;;;4972987;28;1276;-72
2023/04/20 01:12:55;;;;;;;;;;;18.20;65.90;;;;;;4974381;28;920;-72
2023/04/20 01:15:21;;;;;;;;;;;18.20;65.90;;;;;;4972875;28;975;-72
2023/04/20 01:17:46;;;;;;;;;;;18.20;65.90;;;;;;4973945;28;1050;-72
2023/04/20 01:20:12;;;;;;;;;;;18.20;65.90;;;;;;4973666;28;1911;-72
2023/04/20 01:22:43;;;;;;;;;;;18.20;65.90;;;;;;4972856;28;900;-72
2023/04/20 01:25:09;;;;;;;;;;;18.20;65.90;;;;;;4973852;28;839;-72
2023/04/20 01:27:34;;;;;;;;;;;18.10;65.90;;;;;;4973643;28;911;-71
2023/04/20 01:30:00;;;;;;;;;;;18.20;65.90;;;;;;4973581;28;1275;-72
2023/04/20 01:32:25;;;;;;;;;;;18.10;65.90;;;;;;4972686;28;857;-72
2023/04/20 01:34:50;;;;;;;;;;;18.20;65.90;;;;;;4973863;28;1377;-72
2023/04/20 01:37:16;;;;;;;;;;;18.10;65.90;;;;;;4973537;28;861;-72
2023/04/20 01:39:42;;;;;;;;;;;18.20;66.00;;;;;;4973157;28;1275;-72
2023/04/20 01:42:08;;;;;;;;;;;18.20;66.00;;;;;;4973040;28;1914;-71
2023/04/20 01:44:33;;;;;;;;;;;18.20;66.00;;;;;;4973159;28;861;-72
2023/04/20 01:46:58;;;;;;;;;;;18.10;65.90;;;;;;4973089;28;1032;-72
2023/04/20 01:49:24;;;;;;;;;;;18.20;66.00;;;;;;4972766;28;1385;-72
2023/04/20 01:51:50;;;;;;;;;;;18.10;65.90;;;;;;4973010;28;840;-72
2023/04/20 01:54:15;;;;;;;;;;;18.10;66.00;;;;;;4971855;28;1681;-72
2023/04/20 01:56:40;;;;;;;;;;;18.10;65.90;;;;;;4973568;28;793;-72
2023/04/20 01:59:06;;;;;;;;;;;18.20;66.00;;;;;;4973082;28;1274;-72
2023/04/20 02:01:31;;;;;;;;;;;18.10;66.00;;;;;;4971903;28;1902;-72
2023/04/20 02:03:57;;;;;;;;;;;18.10;65.90;;;;;;4973275;28;943;-72
2023/04/20 02:06:22;;;;;;;;;;;18.10;66.00;;;;;;4973308;28;912;-72
2023/04/20 02:08:48;;;;;;;;;;;18.10;66.00;;;;;;4972937;28;1216;-71
2023/04/20 02:11:13;;;;;;;;;;;18.10;66.00;;;;;;4972033;28;810;-72
2023/04/20 02:13:39;;;;;;;;;;;18.10;66.00;;;;;;4973322;28;820;-72
2023/04/20 02:16:05;;;;;;;;;;;18.10;66.00;;;;;;4973163;28;1597;-72
2023/04/20 02:18:31;;;;;;;;;;;18.10;66.00;;;;;;4973338;28;908;-72
2023/04/20 02:20:57;;;;;;;;;;;18.10;66.00;;;;;;4973520;28;1891;-72
2023/04/20 02:23:23;;;;;;;;;;;18.10;66.00;;;;;;4973246;28;889;-72
2023/04/20 02:25:48;;;;;;;;;;;18.10;66.80;;;;;;4972969;28;885;-72
2023/04/20 02:28:13;;;;;;;;;;;18.10;66.10;;;;;;4972576;28;1349;-71
2023/04/20 02:30:39;;;;;;;;;;;18.10;66.00;;;;;;4972598;28;1261;-72
2023/04/20 02:33:05;;;;;;;;;;;18.10;66.10;;;;;;4972268;28;900;-72
2023/04/20 02:35:31;;;;;;;;;;;18.10;66.10;;;;;;4972629;28;1620;-72
2023/04/20 02:37:56;;;;;;;;;;;18.10;66.10;;;;;;4972451;28;952;-73
2023/04/20 02:40:22;;;;;;;;;;;18.10;66.10;;;;;;4972523;28;1914;-72
2023/04/20 02:42:47;;;;;;;;;;;18.10;66.10;;;;;;4973220;28;1273;-72
2023/04/20 02:45:13;;;;;;;;;;;18.10;66.10;;;;;;4986713;28;1164;-72
2023/04/20 02:47:38;;;;;;;;;;;18.10;66.10;;;;;;4972349;28;796;-72
2023/04/20 02:50:04;;;;;;;;;;;18.10;66.10;;;;;;4972169;28;1279;-72
2023/04/20 02:52:29;;;;;;;;;;;18.10;66.10;;;;;;4972753;28;839;-71
2023/04/20 02:54:55;;;;;;;;;;;18.10;66.10;;;;;;4972424;28;888;-72
2023/04/20 02:57:21;;;;;;;;;;;18.10;66.10;;;;;;4972058;28;852;-72
2023/04/20 02:59:46;;;;;;;;;;;18.10;66.10;;;;;;4972132;28;1368;-72
2023/04/20 03:02:11;;;;;;;;;;;18.10;66.20;;;;;;4972222;28;1961;-72
2023/04/20 03:04:38;;;;;;;;;;;18.10;66.10;;;;;;4971781;28;808;-72
2023/04/20 03:07:03;;;;;;;;;;;18.10;66.10;;;;;;4972150;28;876;-72
2023/04/20 03:09:29;;;;;;;;;;;18.10;66.20;;;;;;4972163;28;1237;-72
2023/04/20 03:11:54;;;;;;;;;;;18.10;66.10;;;;;;4972175;28;882;-72
2023/04/20 03:14:20;;;;;;;;;;;18.10;66.20;;;;;;4971994;28;909;-72
2023/04/20 03:16:46;;;;;;;;;;;18.10;66.10;;;;;;4972336;28;855;-72
2023/04/20 03:19:11;;;;;;;;;;;18.00;66.10;;;;;;4971549;28;1265;-72
2023/04/20 03:21:37;;;;;;;;;;;18.00;66.10;;;;;;4971985;28;1962;-72
2023/04/20 03:24:02;;;;;;;;;;;18.10;66.20;;;;;;4970934;28;877;-72
2023/04/20 03:26:28;;;;;;;;;;;18.10;66.20;;;;;;4972078;28;1030;-73
2023/04/20 03:28:53;;;;;;;;;;;18.10;66.20;;;;;;4971478;28;1257;-72
2023/04/20 03:31:19;;;;;;;;;;;18.00;66.10;;;;;;4971775;28;931;-72
2023/04/20 03:33:44;;;;;;;;;;;18.10;66.20;;;;;;4971924;28;1441;-73
2023/04/20 03:36:13;;;;;;;;;;;18.00;66.10;;;;;;4971886;28;1585;-72
2023/04/20 03:38:38;;;;;;;;;;;18.00;66.10;;;;;;4971308;28;1273;-72
2023/04/20 03:41:04;;;;;;;;;;;18.00;66.20;;;;;;4971682;28;1961;-73
2023/04/20 03:43:30;;;;;;;;;;;18.00;66.20;;;;;;4971715;28;1442;-73
2023/04/20 03:45:55;;;;;;;;;;;18.00;66.20;;;;;;4971740;28;825;-73
2023/04/20 03:48:20;;;;;;;;;;;18.10;66.20;;;;;;4971243;28;813;-73
2023/04/20 03:50:46;;;;;;;;;;;18.00;66.20;;;;;;4971565;28;1263;-73
2023/04/20 03:53:11;;;;;;;;;;;18.00;66.20;;;;;;4951520;28;1272;-73
2023/04/20 03:55:37;;;;;;;;;;;18.00;66.20;;;;;;4971522;28;875;-73
2023/04/20 03:58:04;;;;;;;;;;;18.00;66.20;;;;;;4971197;28;904;-73
2023/04/20 04:00:29;;;;;;;;;;;18.00;66.20;;;;;;4970793;28;1961;-73
2023/04/20 04:02:55;;;;;;;;;;;18.00;66.20;;;;;;4970935;28;892;-73
2023/04/20 04:05:20;;;;;;;;;;;18.00;66.20;;;;;;4970851;28;793;-73
2023/04/20 04:07:46;;;;;;;;;;;18.00;66.20;;;;;;4971310;28;892;-73
2023/04/20 04:10:11;;;;;;;;;;;18.00;66.10;;;;;;4972419;28;1246;-72
2023/04/20 04:12:37;;;;;;;;;;;18.00;66.10;;;;;;4974060;28;927;-72
2023/04/20 04:15:03;;;;;;;;;;;18.10;66.10;;;;;;4984996;28;1039;-72
2023/04/20 04:17:28;;;;;;;;;;;18.10;66.10;;;;;;4970364;28;808;-72
2023/04/20 04:19:53;;;;;;;;;;;18.10;65.90;;;;;;4971138;28;1343;-72
2023/04/20 04:22:19;;;;;;;;;;;18.10;65.80;;;;;;4971196;28;1974;-72
2023/04/20 04:24:44;;;;;;;;;;;18.20;65.70;;;;;;4971089;28;1243;-73
2023/04/20 04:27:10;;;;;;;;;;;18.20;65.60;;;;;;4970799;28;859;-72
2023/04/20 04:29:37;;;;;;;;;;;18.30;65.50;;;;;;4970896;28;1336;-72
2023/04/20 04:32:03;;;;;;;;;;;18.30;66.20;;;;;;4971226;28;903;-73
2023/04/20 04:34:29;;;;;;;;;;;18.30;65.30;;;;;;4970916;28;972;-73
2023/04/20 04:36:56;;;;;;;;;;;18.30;65.20;;;;;;4971180;28;1199;-72
2023/04/20 04:39:22;;;;;;;;;;;18.30;65.30;;;;;;4970855;28;1293;-71
2023/04/20 04:41:47;;;;;;;;;;;18.40;65.10;;;;;;4971344;28;1938;-72
2023/04/20 04:44:14;;;;;;;;;;;18.40;65.00;;;;;;4969838;28;960;-73
2023/04/20 04:46:40;;;;;;;;;;;18.40;65.60;;;;;;4970837;28;1241;-72
2023/04/20 04:49:06;;;;;;;;;;;18.50;64.80;;;;;;4970784;28;1257;-72
2023/04/20 04:51:32;;;;;;;;;;;18.60;64.70;;;;;;4970552;28;904;-72
2023/04/20 04:53:57;;;;;;;;;;;18.70;64.50;;;;;;4971118;28;1522;-72
2023/04/20 04:56:23;;;;;;;;;;;18.80;64.40;;;;;;4972922;28;1293;-72
2023/04/20 04:58:49;;;;;;;;;;;18.90;64.10;;;;;;4974074;28;1310;-73
2023/04/20 05:01:14;;;;;;;;;;;19.00;63.70;;;;;;4972930;28;1948;-73
2023/04/20 05:03:40;;;;;;;;;;;19.20;63.50;;;;;;4974569;28;832;-72
2023/04/20 05:06:06;;;;;;;;;;;19.30;63.20;;;;;;4974262;28;916;-72
2023/04/20 05:08:31;;;;;;;;;;;19.40;62.80;;;;;;4974016;28;878;-73
2023/04/20 05:10:57;;;;;;;;;;;19.50;62.50;;;;;;4972888;28;1767;-73
2023/04/20 05:13:22;;;;;;;;;;;19.60;62.20;;;;;;4974327;28;821;-71
2023/04/20 05:15:48;;;;;;;;;;;19.70;61.90;;;;;;4974141;28;1066;-72
2023/04/20 05:18:13;;;;;;;;;;;19.80;61.70;;;;;;4974118;28;997;-72
2023/04/20 05:20:39;;;;;;;;;;;19.80;61.40;;;;;;4973957;28;1968;-72
2023/04/20 05:23:04;;;;;;;;;;;19.90;61.10;;;;;;4974106;28;892;-72
2023/04/20 05:25:30;;;;;;;;;;;20.00;60.90;;;;;;4973897;28;845;-72
2023/04/20 05:27:55;;;;;;;;;;;20.10;60.70;;;;;;4973820;28;1268;-73
2023/04/20 05:30:21;;;;;;;;;;;20.10;60.50;;;;;;4973797;28;1274;-72
2023/04/20 05:32:46;;;;;;;;;;;20.20;60.30;;;;;;4973811;28;880;-72
2023/04/20 05:35:12;;;;;;;;;;;20.20;60.10;;;;;;4973974;28;1366;-73
2023/04/20 05:37:37;;;;;;;;;;;20.30;60.10;;;;;;4973555;28;872;-73
2023/04/20 05:40:03;;;;;;;;;;;20.30;60.00;;;;;;4972454;28;1273;-72
2023/04/20 05:42:29;;;;;;;;;;;20.30;59.90;;;;;;4974120;28;1970;-72
2023/04/20 05:44:54;;;;;;;;;;;20.30;59.80;;;;;;4973663;28;866;-73
2023/04/20 05:47:20;;;;;;;;;;;20.40;59.70;;;;;;4973472;28;871;-72
2023/04/20 05:49:46;;;;;;;;;;;20.40;59.70;;;;;;4974174;28;1315;-72
2023/04/20 05:52:11;;;;;;;;;;;20.40;59.60;;;;;;4973480;28;1226;-72
2023/04/20 05:54:37;;;;;;;;;;;20.40;59.50;;;;;;4972076;28;1837;-72
2023/04/20 05:57:04;;;;;;;;;;;20.50;59.60;;;;;;4972724;28;1843;-72
2023/04/20 05:59:29;;;;;;;;;;;20.50;59.50;;;;;;4972269;28;1463;-73
2023/04/20 06:01:55;;;;;;;;;;;20.50;60.10;;;;;;4972099;28;1949;-72
2023/04/20 06:04:20;;;;;;;;;;;20.50;59.40;;;;;;4973578;28;911;-73
2023/04/20 06:06:46;;;;;;;;;;;20.60;59.50;;;;;;4972830;28;990;-74
2023/04/20 06:09:11;;;;;;;;;;;20.60;59.50;;;;;;4974366;28;1249;-74
2023/04/20 06:11:37;;;;;;;;;;;20.60;59.40;;;;;;4973449;28;889;-74
2023/04/20 06:14:02;;;;;;;;;;;20.60;59.40;;;;;;4974175;28;995;-75
2023/04/20 06:16:28;;;;;;;;;;;20.60;59.40;;;;;;4972225;28;908;-73
2023/04/20 06:18:53;;;;;;;;;;;20.60;59.30;;;;;;4985276;28;1323;-73
2023/04/20 06:21:19;;;;;;;;;;;20.60;59.40;;;;;;4973013;28;1951;-75
2023/04/20 06:23:44;;;;;;;;;;;20.60;59.30;;;;;;4974363;28;805;-74
2023/04/20 06:26:10;;;;;;;;;;;20.60;59.30;;;;;;4969589;28;789;-75
2023/04/20 06:28:35;;;;;;;;;;;20.70;59.30;;;;;;4974506;28;874;-76
2023/04/20 06:31:01;;;;;;;;;;;20.60;59.30;;;;;;4972302;28;1382;-74
2023/04/20 06:33:27;;;;;;;;;;;20.70;59.30;;;;;;4972292;28;1460;-73
2023/04/20 06:35:53;;;;;;;;;;;20.70;59.40;;;;;;4972671;28;1314;-73
2023/04/20 06:38:19;;;;;;;;;;;20.70;59.30;;;;;;4972799;28;884;-73
2023/04/20 06:40:45;;;;;;;;;;;20.70;59.30;;;;;;4971921;28;1914;-72
2023/04/20 06:43:10;;;;;;;;;;;20.70;59.30;;;;;;4971866;28;1280;-72
2023/04/20 06:45:36;;;;;;;;;;;20.70;59.30;;;;;;4972592;28;1167;-72
2023/04/20 06:48:01;;;;;;;;;;;20.70;59.30;;;;;;4972329;28;1035;-74
2023/04/20 06:50:26;;;;;;;;;;;20.70;59.30;;;;;;4971133;28;1394;-72
2023/04/20 06:52:52;;;;;;;;;;;20.80;59.30;;;;;;4971913;28;1373;-72
2023/04/20 06:55:17;;;;;;;;;;;20.80;59.30;;;;;;4972641;28;804;-72
2023/04/20 06:57:43;;;;;;;;;;;20.80;59.30;;;;;;4972258;28;860;-71
2023/04/20 07:00:09;;;;;;;;;;;20.80;59.30;;;;;;4971742;28;1343;-71
2023/04/20 07:02:50;;;;;;;;;;;20.80;59.30;;;;;;4971491;28;1894;-71
2023/04/20 07:05:16;;;;;;;;;;;20.80;59.30;;;;;;4972132;28;832;-71
2023/04/20 07:07:41;;;;;;;;;;;20.80;59.30;;;;;;4970878;28;835;-71
2023/04/20 07:10:08;;;;;;;;;;;20.80;59.30;;;;;;4972052;28;1269;-70
2023/04/20 07:12:34;;;;;;;;;;;20.80;59.40;;;;;;4978275;28;1212;-70
2023/04/20 07:15:00;;;;;;;;;;;20.80;59.40;;;;;;4970774;28;837;-70
2023/04/20 07:17:28;;;;;;;;;;;20.80;59.40;;;;;;4971386;28;857;-70
2023/04/20 07:19:55;;;;;;;;;;;20.80;59.40;;;;;;4971396;28;1422;-70
2023/04/20 07:22:21;;;;;;;;;;;20.70;59.40;;;;;;4969919;28;1973;-71
2023/04/20 07:24:46;;;;;;;;;;;20.80;59.70;;;;;;4970388;28;1343;-71
2023/04/20 07:27:11;;;;;;;;;;;20.70;60.20;;;;;;4952732;28;1459;-70
2023/04/20 07:29:37;;;;;;;;;;;20.70;60.50;;;;;;4971928;28;1296;-70
2023/04/20 07:32:02;;;;;;;;;;;20.70;60.80;;;;;;4971806;28;884;-70
2023/04/20 07:34:28;;;;;;;;;;;20.70;61.00;;;;;;4971763;28;1359;-70
2023/04/20 07:36:53;;;;;;;;;;;20.70;61.10;;;;;;4971673;28;884;-70
2023/04/20 07:39:19;;;;;;;;;;;20.60;61.00;;;;;;4972504;28;1280;-70
2023/04/20 07:41:44;;;;;;;;;;;20.60;61.30;;;;;;4972509;28;1899;-70
2023/04/20 07:44:11;;;;;;;;;;;20.60;61.50;;;;;;4971626;28;836;-70
2023/04/20 07:46:37;;;;;;;;;;;20.60;61.60;;;;;;4971521;28;915;-70
2023/04/20 07:49:02;;;;;;;;;;;20.60;61.70;;;;;;4971300;28;1293;-70
2023/04/20 07:51:29;;;;;;;;;;;20.60;61.80;;;;;;4971162;28;912;-70
2023/04/20 07:53:55;;;;;;;;;;;20.50;61.90;;;;;;4971654;28;885;-70
2023/04/20 07:56:21;;;;;;;;;;;20.50;62.00;;;;;;4971481;28;1550;-70
2023/04/20 07:58:46;;;;;;;;;;;20.50;62.20;;;;;;4970274;28;1360;-71
2023/04/20 08:01:12;;;;;;;;;;;20.50;62.30;;;;;;4970829;28;1907;-70
2023/04/20 08:03:37;;;;;;;;;;;20.50;63.00;;;;;;4971218;28;923;-70
2023/04/20 08:06:03;;;;;;;;;;;20.50;62.80;;;;;;4970786;28;812;-71
2023/04/20 08:08:29;;;;;;;;;;;20.40;62.90;;;;;;4969942;28;897;-70
2023/04/20 08:11:00;;;;;;;;;;;20.40;63.00;;;;;;4970630;28;1198;-70
2023/04/20 08:13:26;;;;;;;;;;;20.40;63.20;;;;;;4970043;28;1123;-70
2023/04/20 08:15:51;;;;;;;;;;;20.40;63.20;;;;;;4971451;28;887;-70
2023/04/20 08:18:17;;;;;;;;;;;20.40;63.40;;;;;;4971113;28;888;-71
2023/04/20 08:20:44;;;;;;;;;;;20.40;65.10;;;;;;4970683;28;1894;-71
2023/04/20 08:23:10;;;;;;;;;;;20.40;64.40;;;;;;4970860;28;889;-70
2023/04/20 08:25:37;;;;;;;;;;;20.40;64.50;;;;;;4971343;28;854;-71
2023/04/20 08:28:03;;;;;;;;;;;20.30;64.60;;;;;;4968849;28;1218;-71
2023/04/20 08:30:28;;;;;;;;;;;20.30;64.60;;;;;;4972914;28;1204;-71
2023/04/20 08:32:54;;;;;;;;;;;20.30;64.80;;;;;;4973513;28;1455;-70
2023/04/20 08:35:19;;;;;;;;;;;20.30;64.70;;;;;;4974544;28;1690;-70
2023/04/20 08:37:45;;;;;;;;;;;20.30;64.50;;;;;;4974587;28;890;-71
2023/04/20 08:40:10;;;;;;;;;;;20.30;64.40;;;;;;4971547;28;1393;-71
2023/04/20 08:42:36;;;;;;;;;;;20.20;64.40;;;;;;4976897;28;1906;-73
2023/04/20 08:45:01;;;;;;;;;;;20.20;64.60;;;;;;4974808;28;912;-73
2023/04/20 08:47:28;;;;;;;;;;;20.20;65.50;;;;;;4974950;28;1251;-73
2023/04/20 08:49:53;;;;;;;;;;;20.20;65.00;;;;;;4973225;28;1530;-72
2023/04/20 08:52:19;;;;;;;;;;;20.20;65.10;;;;;;4973487;28;1399;-73
2023/04/20 08:54:44;;;;;;;;;;;20.20;65.30;;;;;;4974384;28;896;-72
2023/04/20 08:57:10;;;;;;;;;;;20.10;65.30;;;;;;4974352;28;899;-72
2023/04/20 08:59:35;;;;;;;;;;;20.10;65.40;;;;;;4974215;28;1288;-72
2023/04/20 09:02:10;;;;;;;;;;;20.10;65.40;;;;;;4973157;28;1898;-72
2023/04/20 09:04:36;;;;;;;;;;;20.10;65.60;;;;;;4974292;28;854;-72
2023/04/20 09:07:01;;;;;;;;;;;20.10;65.60;;;;;;4974054;28;1332;-73
2023/04/20 09:09:27;;;;;;;;;;;20.10;65.90;;;;;;4974210;28;1268;-73
2023/04/20 09:11:59;;;;;;;;;;;20.10;66.10;;;;;;4974283;28;849;-73
2023/04/20 09:14:24;;;;;;;;;;;20.10;66.10;;;;;;4973392;28;845;-74
2023/04/20 09:16:51;;;;;;;;;;;20.10;66.20;;;;;;4974211;28;1177;-72
2023/04/20 09:19:23;;;;;;;;;;;20.00;66.20;;;;;;4987486;28;1805;-73
2023/04/20 09:21:49;;;;;;;;;;;20.00;66.40;;;;;;4973268;28;1894;-73
2023/04/20 09:24:15;;;;;;;;;;;20.00;66.30;;;;;;4974116;28;832;-73
2023/04/20 09:26:40;;;;;;;;;;;20.00;66.40;;;;;;4975087;28;870;-73
2023/04/20 09:29:15;;;;;;;;;;;20.00;66.40;;;;;;4972260;28;1347;-73
2023/04/20 09:31:41;;;;;;;;;;;19.90;66.50;;;;;;4972444;28;896;-74
2023/04/20 09:34:06;;;;;;;;;;;19.90;66.50;;;;;;4972158;28;1451;-74
2023/04/20 09:36:38;;;;;;;;;;;19.90;66.50;;;;;;4973704;28;876;-74
2023/04/20 09:39:06;;;;;;;;;;;19.90;66.60;;;;;;4972708;28;1228;-73
2023/04/20 09:41:32;;;;;;;;;;;19.90;66.80;;;;;;4972695;28;1899;-74
2023/04/20 09:43:57;;;;;;;;;;;19.90;66.90;;;;;;4972404;28;875;-74
2023/04/20 09:46:22;;;;;;;;;;;19.90;66.80;;;;;;4972258;28;1019;-74
2023/04/20 09:48:48;;;;;;;;;;;19.90;66.90;;;;;;4970907;28;2215;-72
2023/04/20 09:51:13;;;;;;;;;;;19.90;67.00;;;;;;4973553;28;1235;-73
2023/04/20 09:53:39;;;;;;;;;;;19.90;67.10;;;;;;4972377;28;1547;-74
2023/04/20 09:56:05;;;;;;;;;;;19.80;67.10;;;;;;4972344;28;893;-73
2023/04/20 09:58:30;;;;;;;;;;;19.90;67.10;;;;;;4972115;28;1833;-73
2023/04/20 10:00:56;;;;;;;;;;;19.80;67.00;;;;;;4971330;28;1895;-73
2023/04/20 10:03:21;;;;;;;;;;;19.80;67.20;;;;;;4971462;28;1500;-76
2023/04/20 10:05:47;;;;;;;;;;;19.80;67.20;;;;;;4972970;28;900;-74
2023/04/20 10:08:12;;;;;;;;;;;19.80;67.20;;;;;;4971619;28;878;-75
2023/04/20 10:10:41;;;;;;;;;;;19.80;67.40;;;;;;4968945;28;1269;-75
2023/04/20 10:13:07;;;;;;;;;;;19.80;67.20;;;;;;4970081;28;1147;-74
2023/04/20 10:15:36;;;;;;;;;;;19.90;67.30;;;;;;4972622;28;841;-75
2023/04/20 10:18:01;;;;;;;;;;;19.80;67.10;;;;;;4970401;28;818;-74
2023/04/20 10:20:27;;;;;;;;;;;19.90;67.00;;;;;;4971753;28;1887;-75
2023/04/20 10:22:53;;;;;;;;;;;19.90;66.90;;;;;;4970310;28;1296;-75
2023/04/20 10:25:22;;;;;;;;;;;19.90;66.90;;;;;;4972429;28;914;-76
2023/04/20 10:28:09;;;;;;;;;;;20.00;66.90;;;;;;4970531;28;981;-75
2023/04/20 10:30:35;;;;;;;;;;;20.00;66.80;;;;;;4947241;28;1388;-76
2023/04/20 10:33:04;;;;;;;;;;;20.00;66.70;;;;;;4971665;28;824;-76
2023/04/20 10:35:39;;;;;;;;;;;20.00;66.70;;;;;;4955371;28;1521;-76
2023/04/20 10:38:05;;;;;;;;;;;20.00;66.50;;;;;;4971046;28;1119;-76
2023/04/20 10:40:30;;;;;;;;;;;20.00;66.40;;;;;;4971435;28;1895;-74
2023/04/20 10:42:56;;;;;;;;;;;20.00;66.40;;;;;;4972741;28;974;-74
2023/04/20 10:45:26;;;;;;;;;;;20.00;66.40;;;;;;4972499;28;935;-75
2023/04/20 10:47:52;;;;;;;;;;;20.00;66.30;;;;;;4970136;28;1302;-74
2023/04/20 10:50:17;;;;;;;;;;;20.10;66.30;;;;;;4971254;28;1267;-73
2023/04/20 10:52:43;;;;;;;;;;;20.10;66.10;;;;;;4972090;28;895;-73
2023/04/20 10:55:21;;;;;;;;;;;20.20;66.00;;;;;;4973127;28;875;-72
2023/04/20 10:57:47;;;;;;;;;;;20.20;65.80;;;;;;4971448;28;776;-73
2023/04/20 11:00:23;;;;;;;;;;;20.20;65.90;;;;;;4972786;28;1252;-72
2023/04/20 11:02:49;;;;;;;;;;;20.20;66.00;;;;;;4972718;28;1898;-72
2023/04/20 11:05:15;;;;;;;;;;;20.20;65.80;;;;;;4972543;28;880;-73
2023/04/20 11:07:50;;;;;;;;;;;20.20;65.90;;;;;;4972054;28;953;-73
2023/04/20 11:10:16;;;;;;;;;;;20.20;66.00;;;;;;4970857;28;1364;-73
2023/04/20 11:12:41;;;;;;;;;;;20.20;66.10;;;;;;4968817;28;2117;-73
2023/04/20 11:15:08;;;;;;;;;;;20.10;66.00;;;;;;4973580;28;1206;-74
2023/04/20 11:17:36;;;;;;;;;;;20.10;66.10;;;;;;4971904;28;844;-74
2023/04/20 11:20:04;;;;;;;;;;;20.20;66.20;;;;;;4970811;28;1262;-73
2023/04/20 11:22:29;;;;;;;;;;;20.20;66.20;;;;;;4970088;28;1894;-73
2023/04/20 11:25:04;;;;;;;;;;;20.20;66.20;;;;;;4972183;28;1007;-73
2023/04/20 11:27:29;;;;;;;;;;;20.20;66.30;;;;;;4971653;28;951;-72
2023/04/20 11:29:56;;;;;;;;;;;20.20;66.50;;;;;;4971719;28;1221;-73
2023/04/20 11:32:21;;;;;;;;;;;20.20;66.50;;;;;;4971558;28;1452;-73
2023/04/20 11:34:47;;;;;;;;;;;20.20;66.50;;;;;;4971006;28;2096;-72
2023/04/20 11:37:12;;;;;;;;;;;20.20;66.60;;;;;;4969930;28;1534;-73
2023/04/20 11:39:38;;;;;;;;;;;20.20;66.80;;;;;;4969065;28;1695;-74
2023/04/20 11:42:04;;;;;;;;;;;20.20;66.70;;;;;;4971049;28;2005;-74
2023/04/20 11:44:29;;;;;;;;;;;20.20;66.80;;;;;;4970503;28;1436;-72
2023/04/20 11:46:58;;;;;;;;;;;20.20;67.00;;;;;;4970135;28;828;-73
2023/04/20 11:49:24;;;;;;;;;;;20.20;67.10;;;;;;4970146;28;2546;-76
2023/04/20 11:51:49;;;;;;;;;;;20.20;67.10;;;;;;4947046;28;1272;-72
2023/04/20 11:54:15;;;;;;;;;;;20.20;67.20;;;;;;4970331;28;898;-73
2023/04/20 11:56:41;;;;;;;;;;;20.20;67.20;;;;;;4969730;28;971;-72
2023/04/20 11:59:06;;;;;;;;;;;20.20;67.50;;;;;;4970673;28;1269;-73
2023/04/20 12:01:32;;;;;;;;;;;20.20;67.70;;;;;;4969069;28;1958;-74
2023/04/20 12:04:00;;;;;;;;;;;20.20;67.90;;;;;;4970273;28;888;-74
2023/04/20 12:06:26;;;;;;;;;;;20.20;65.90;;;;;;4973790;28;864;-74
2023/04/20 12:08:51;;;;;;;;;;;20.10;62.90;;;;;;4973917;28;1265;-74
2023/04/20 12:11:17;;;;;;;;;;;20.10;61.50;;;;;;4974279;28;884;-74
2023/04/20 12:13:42;;;;;;;;;;;20.00;60.60;;;;;;4975540;28;848;-73
2023/04/20 12:16:08;;;;;;;;;;;19.90;60.40;;;;;;4975070;28;1701;-74
2023/04/20 12:18:33;;;;;;;;;;;19.90;60.40;;;;;;4975009;28;868;-74
2023/04/20 12:20:59;;;;;;;;;;;19.80;60.10;;;;;;4974631;28;1878;-73
2023/04/20 12:23:25;;;;;;;;;;;19.80;59.80;;;;;;4973114;28;1302;-73
2023/04/20 12:25:50;;;;;;;;;;;19.70;59.60;;;;;;4973755;28;846;-73
2023/04/20 12:28:16;;;;;;;;;;;19.70;59.40;;;;;;4973499;28;924;-74
2023/04/20 12:30:41;;;;;;;;;;;19.60;59.20;;;;;;4974770;28;1347;-74
2023/04/20 12:33:07;;;;;;;;;;;19.60;59.10;;;;;;4974619;28;1426;-74
2023/04/20 12:35:32;;;;;;;;;;;19.50;58.90;;;;;;4974014;28;1750;-72
2023/04/20 12:37:58;;;;;;;;;;;19.50;58.70;;;;;;4974099;28;1487;-71
2023/04/20 12:40:23;;;;;;;;;;;19.50;58.50;;;;;;4973611;28;1347;-71
2023/04/20 12:42:49;;;;;;;;;;;19.40;58.30;;;;;;4974064;28;1973;-71
2023/04/20 12:45:14;;;;;;;;;;;19.40;58.00;;;;;;4973079;28;1382;-73
2023/04/20 12:47:40;;;;;;;;;;;19.40;58.00;;;;;;4976895;28;1419;-75
2023/04/20 12:50:06;;;;;;;;;;;19.40;57.80;;;;;;4972698;28;1384;-73
2023/04/20 12:52:32;;;;;;;;;;;19.40;57.70;;;;;;4974393;28;1338;-73
2023/04/20 12:54:57;;;;;;;;;;;19.30;57.60;;;;;;4973496;28;1262;-73
2023/04/20 12:57:23;;;;;;;;;;;19.30;57.50;;;;;;4959491;28;1380;-73
2023/04/20 12:59:48;;;;;;;;;;;19.30;57.10;;;;;;4974211;28;1428;-72
2023/04/20 13:02:14;;;;;;;;;;;19.20;57.40;;;;;;4974183;28;1906;-74
2023/04/20 13:04:40;;;;;;;;;;;19.30;57.50;;;;;;4974612;28;1299;-72
2023/04/20 13:07:05;;;;;;;;;;;19.20;57.50;;;;;;4974345;28;920;-71
2023/04/20 13:09:31;;;;;;;;;;;19.20;57.40;;;;;;4974049;28;1283;-76
2023/04/20 13:11:56;;;;;;;;;;;19.20;57.20;;;;;;4964124;28;1022;-74
2023/04/20 13:14:22;;;;;;;;;;;19.10;57.20;;;;;;4973284;28;824;-73
2023/04/20 13:16:47;;;;;;;;;;;19.10;57.00;;;;;;4973838;28;792;-74
2023/04/20 13:19:13;;;;;;;;;;;19.10;56.80;;;;;;4973442;28;1253;-76
2023/04/20 13:21:38;;;;;;;;;;;19.10;56.70;;;;;;4975061;28;1895;-72
2023/04/20 13:24:04;;;;;;;;;;;19.10;56.80;;;;;;4974049;28;842;-70
2023/04/20 13:26:30;;;;;;;;;;;19.10;56.40;;;;;;4973210;28;910;-71
2023/04/20 13:28:57;;;;;;;;;;;19.10;56.50;;;;;;4973659;28;1282;-70
2023/04/20 13:31:23;;;;;;;;;;;19.00;56.60;;;;;;4973952;28;856;-70
2023/04/20 13:33:53;;;;;;;;;;;19.00;56.50;;;;;;4972627;28;1392;-69
2023/04/20 13:36:22;;;;;;;;;;;19.00;56.80;;;;;;4973761;28;908;-69
2023/04/20 13:38:47;;;;;;;;;;;19.00;56.90;;;;;;4973001;28;1254;-69
2023/04/20 13:41:14;;;;;;;;;;;19.00;57.00;;;;;;4973712;28;1910;-69
2023/04/20 13:43:39;;;;;;;;;;;19.00;57.00;;;;;;4973669;28;1494;-72
2023/04/20 13:46:05;;;;;;;;;;;19.00;56.90;;;;;;4973631;28;925;-77
2023/04/20 13:48:30;;;;;;;;;;;19.00;57.00;;;;;;4973573;28;801;-75
2023/04/20 13:50:55;;;;;;;;;;;19.00;56.70;;;;;;4973851;28;1258;-76
2023/04/20 13:53:21;;;;;;;;;;;19.00;56.70;;;;;;4973652;28;1046;-73
2023/04/20 13:55:47;;;;;;;;;;;18.90;56.60;;;;;;4973614;28;891;-73
2023/04/20 13:58:12;;;;;;;;;;;18.90;56.70;;;;;;4972698;28;1248;-74
2023/04/20 14:00:38;;;;;;;;;;;18.90;56.70;;;;;;4959515;28;1969;-71
2023/04/20 14:03:04;;;;;;;;;;;18.90;57.00;;;;;;4973188;28;1157;-73
2023/04/20 14:05:30;;;;;;;;;;;18.90;57.20;;;;;;4973522;28;888;-73
2023/04/20 14:08:00;;;;;;;;;;;18.90;57.30;;;;;;4973198;28;1007;-73
2023/04/20 14:10:26;;;;;;;;;;;18.90;57.30;;;;;;4972272;28;1371;-73
2023/04/20 14:12:51;;;;;;;;;;;18.90;57.40;;;;;;4973129;28;918;-73
2023/04/20 14:15:17;;;;;;;;;;;18.90;57.10;;;;;;4973059;28;883;-73
2023/04/20 14:17:42;;;;;;;;;;;18.90;57.10;;;;;;4972521;28;859;-71
2023/04/20 14:20:08;;;;;;;;;;;18.90;57.00;;;;;;4973023;28;1347;-70
2023/04/20 14:22:35;;;;;;;;;;;18.90;56.90;;;;;;4972945;28;1961;-71
2023/04/20 14:25:01;;;;;;;;;;;18.80;56.80;;;;;;4972862;28;837;-71
2023/04/20 14:27:27;;;;;;;;;;;18.90;56.80;;;;;;4953303;28;1196;-71
2023/04/20 14:29:52;;;;;;;;;;;18.90;56.50;;;;;;4972796;28;1350;-71